Terminal Aerodrome Forecast
Issued by NWS

Home | Current Version | Previous Version | Text Only | Print | Product List | Glossary On
Versions: 1 2 3 4 5 6 7 8 9 10 11 12 13 14 15 16 17 18 19 20 21 22 23 24 25 26 27 28 29 30 31 32 33 34 35 36 37 38 39 40 41 42 43
000
FTAK31 PANC 150535
TAFADQ
TAF
PADQ 150535Z 1506/1606 12008KT P6SM VCSH OVC035
      TEMPO 1506/1510 5SM -SHRA BKN025
     FM151000 12011KT 6SM -SHRA SCT015 BKN025
     FM151800 18007KT P6SM VCSH BKN035
     FM152200 22008KT P6SM VCSH BKN060=

USA.gov is the U.S. government's official web portal to all federal, state and local government web resources and services.